METAR Data
IDs: Format: Raw Decoded Include TAF

Data at: 0856 UTC 26 Jan 2020

KLUM 260855Z AUTO 28009KT 10SM OVC011 M05/M06 A2994 RMK AO2 T10481065
KLUM 260835Z AUTO 27009KT 10SM OVC011 M04/M06 A2994 RMK AO2 T10451063
KLUM 260815Z AUTO 28006KT 10SM OVC011 M04/M06 A2994 RMK AO2 T10451061
KLUM 260755Z AUTO 27008KT 10SM OVC009 M04/M06 A2994 RMK AO2 T10421059
KLUM 260735Z AUTO 27005KT 10SM OVC009 M04/M05 A2994 RMK AO2 T10411055
KLUM 260715Z AUTO 30007KT 10SM OVC009 M04/M05 A2994 RMK AO2 T10411053
KLUM 260655Z AUTO 27008KT 10SM OVC009 M04/M05 A2994 RMK AO2 T10411053
KLUM 260635Z AUTO 29008KT 10SM OVC009 M04/M05 A2994 RMK AO2 T10401052
KLUM 260615Z AUTO 27010KT 10SM OVC009 M04/M05 A2994 RMK AO2 T10381052
KLUM 260555Z AUTO 30008KT 10SM OVC009 M04/M05 A2994 RMK AO2 T10361051 11016 21036 410051036
KLUM 260535Z AUTO 30008KT 10SM OVC011 M04/M05 A2993 RMK AO2 T10361052
KLUM 260515Z AUTO 29008KT 10SM OVC011 M03/M05 A2993 RMK AO2 T10331051
KLUM 260455Z AUTO 30008KT 10SM OVC011 M03/M05 A2993 RMK AO2 T10321051
KLUM 260435Z AUTO 29009KT 10SM OVC013 M03/M05 A2993 RMK AO2 T10311050
KLUM 260415Z AUTO 27006KT 10SM OVC015 M03/M05 A2993 RMK AO2 T10311050
KLUM 260355Z AUTO 29008KT 10SM BKN015 OVC044 M03/M05 A2993 RMK AO2 T10311052
KLUM 260335Z AUTO 29010KT 10SM OVC042 M02/M05 A2992 RMK AO2 T10251048
KLUM 260315Z AUTO 29009KT 10SM OVC042 M02/M05 A2992 RMK AO2 T10221047
KLUM 260255Z AUTO 29008KT 10SM OVC044 M02/M04 A2992 RMK AO2 T10211045
KLUM 260235Z AUTO 28007KT 10SM OVC044 M02/M04 A2992 RMK AO2 T10201043
KLUM 260215Z AUTO 28005KT 10SM SCT033 OVC046 M02/M04 A2991 RMK AO2 T10211043
KLUM 260155Z AUTO 27006KT 10SM BKN035 OVC048 M02/M04 A2991 RMK AO2 T10221044
KLUM 260135Z AUTO 27006KT 10SM OVC033 M02/M04 A2991 RMK AO2 T10221044
KLUM 260115Z AUTO 29006KT 10SM BKN033 M02/M04 A2991 RMK AO2 T10221044
KLUM 260055Z AUTO 29007KT 10SM BKN035 M02/M04 A2990 RMK AO2 T10201041
KLUM 260035Z AUTO 29007KT 10SM SCT014 OVC037 M02/M04 A2991 RMK AO2 T10171036
KLUM 260015Z AUTO 27007KT 10SM SCT014 BKN039 OVC045 M02/M03 A2991 RMK AO2 T10161035
KLUM 252355Z AUTO 28006KT 10SM BKN037 OVC060 M02/M03 A2991 RMK AO2 T10161033 11005 21017
KLUM 252335Z AUTO 27007KT 10SM OVC060 M02/M03 A2991 RMK AO2 T10161035
KLUM 252315Z AUTO 27007KT 7SM SCT032 BKN048 OVC060 M01/M03 A2990 RMK AO2 T10131033
KLUM 252255Z AUTO 28009KT 10SM SCT030 OVC038 M01/M03 A2990 RMK AO2 T10111034
KLUM 252235Z AUTO 28009KT 10SM OVC040 M01/M03 A2990 RMK AO2 T10101034
KLUM 252215Z AUTO 28009KT 10SM OVC044 M01/M03 A2990 RMK AO2 T10081033
KLUM 252155Z AUTO 29008KT 10SM OVC044 M01/M03 A2989 RMK AO2 T10061034
KLUM 252135Z AUTO 29006KT 10SM SCT014 OVC040 M01/M03 A2989 RMK AO2 T10061033
KLUM 252115Z AUTO 29008KT 10SM SCT014 OVC040 M01/M03 A2989 RMK AO2 T10061033
KLUM 252055Z AUTO 29008KT 10SM OVC042 M01/M03 A2989 RMK AO2 T10061035
KLUM 252035Z AUTO 30010G16KT 10SM BKN044 OVC050 M01/M03 A2989 RMK AO2 T10071034
KLUM 252015Z AUTO 28010KT 10SM OVC048 M01/M03 A2989 RMK AO2 T10101035
KLUM 251955Z AUTO 28012KT 10SM SCT014 SCT023 OVC048 M01/M04 A2989 RMK AO2 T10101036
KLUM 251935Z AUTO 28010KT 10SM SCT023 BKN050 OVC055 M01/M04 A2990 RMK AO2 T10081036
KLUM 251915Z AUTO 28012KT 10SM SCT013 BKN060 OVC065 M01/M04 A2989 RMK AO2 T10081036
KLUM 251855Z AUTO 28012KT 10SM SCT013 OVC070 M01/M03 A2990 RMK AO2 T10101035
KLUM 251835Z AUTO 28011KT 10SM BKN060 OVC075 M01/M03 A2990 RMK AO2 T10071034
KLUM 251815Z AUTO 29008KT 10SM SCT050 BKN075 OVC090 00/M03 A2990 RMK AO2 T10051031
KLUM 251755Z AUTO 29010G15KT 10SM SCT013 OVC050 M01/M03 A2990 RMK AO2 T10081030 11008 21025
KLUM 251735Z AUTO 30008KT 10SM OVC050 M01/M03 A2990 RMK AO2 T10091030
KLUM 251715Z AUTO 31009KT 10SM SCT011 SCT043 OVC050 M01/M03 A2991 RMK AO2 T10111030
KLUM 251655Z AUTO 30011KT 10SM BKN011 OVC043 M01/M03 A2991 RMK AO2 T10151031
KLUM 251635Z AUTO 31011KT 10SM OVC011 M02/M03 A2991 RMK AO2 T10161033
KLUM 251615Z AUTO 31008KT 10SM OVC011 M02/M03 A2990 RMK AO2 T10171032
KLUM 251555Z AUTO 30009KT 10SM OVC011 M02/M03 A2990 RMK AO2 T10201033
KLUM 251535Z AUTO 30008KT 10SM OVC009 M02/M03 A2990 RMK AO2 T10201032
KLUM 251515Z AUTO 30008KT 10SM OVC009 M02/M03 A2989 RMK AO2 T10221033
KLUM 251455Z AUTO 29006KT 10SM OVC009 M02/M03 A2989 RMK AO2 T10251032
KLUM 251435Z AUTO 29007KT 7SM BKN009 OVC016 M02/M03 A2989 RMK AO2 T10251032
KLUM 251415Z AUTO 30007KT 4SM BR SCT009 OVC016 M02/M03 A2989 RMK AO2 T10241030
KLUM 251355Z AUTO 29007KT 7SM SCT009 OVC014 M02/M03 A2989 RMK AO2 T10231030
KLUM 251335Z AUTO 30007KT 10SM BKN016 BKN034 OVC046 M02/M03 A2989 RMK AO2 T10231030
KLUM 251315Z AUTO 29008KT 10SM SCT013 BKN036 OVC046 M02/M03 A2989 RMK AO2 T10231032
KLUM 251255Z AUTO 29010KT 10SM SCT013 OVC036 M02/M03 A2988 RMK AO2 T10221032
KLUM 251235Z AUTO 29008KT 10SM BKN011 OVC034 M02/M03 A2988 RMK AO2 T10221031
KLUM 251215Z AUTO 30009KT 10SM OVC011 M02/M03 A2988 RMK AO2 T10231030
KLUM 251155Z AUTO 29009KT 10SM BKN009 OVC038 M02/M03 A2987 RMK AO2 T10231030 11006 21025
KLUM 251135Z AUTO 30009KT 7SM SCT009 BKN036 OVC075 M02/M03 A2987 RMK AO2 T10231030
KLUM 251115Z AUTO 31008KT 10SM SCT009 BKN049 OVC075 M02/M03 A2987 RMK AO2 T10231030
KLUM 251055Z AUTO 30007KT 7SM SCT007 SCT036 OVC048 M02/M03 A2987 RMK AO2 T10251028
KLUM 251035Z AUTO 29008KT 3SM -SN BKN007 BKN013 OVC048 M02/M03 A2987 RMK AO2 T10231026
KLUM 251015Z AUTO 29007KT 3SM -SN OVC007 M02/M03 A2988 RMK AO2 T10231026
KLUM 250955Z AUTO 29009KT 10SM OVC007 M02/M03 A2988 RMK AO2 T10221026
KLUM 250935Z AUTO 29008KT 5SM BR OVC007 M02/M02 A2988 RMK AO2 T10211025
KLUM 250915Z AUTO 29008KT 10SM OVC007 M02/M02 A2988 RMK AO2 T10201023
KLUM 250855Z AUTO 29008KT 7SM OVC009 M02/M02 A2988 RMK AO2 T10171020
KLUM 250835Z AUTO 30008KT 4SM BR OVC011 M01/M01 A2988 RMK AO2 T10101015
KLUM 250815Z AUTO 31009KT 5SM BR OVC011 M01/M01 A2988 RMK AO2 T10081015
KLUM 250755Z AUTO 31008KT 7SM BKN011 OVC020 M01/M02 A2988 RMK AO2 T10081016
KLUM 250735Z AUTO 30008KT 10SM SCT011 SCT018 OVC085 M01/M02 A2988 RMK AO2 T10071018
KLUM 250715Z AUTO 31006KT 10SM SCT038 BKN049 OVC085 M01/M02 A2988 RMK AO2 T10071019
KLUM 250655Z AUTO 31008KT 10SM SCT038 OVC047 M01/M02 A2988 RMK AO2 T10071018
KLUM 250635Z AUTO 31008KT 10SM SCT038 OVC045 M01/M02 A2989 RMK AO2 T10061018
KLUM 250615Z AUTO 30006KT 10SM SCT033 BKN041 OVC047 M01/M02 A2989 RMK AO2 T10061018
KLUM 250555Z AUTO 32005KT 10SM SCT011 SCT016 OVC041 M01/M02 A2990 RMK AO2 T10071018 11003 21007 410011030
KLUM 250535Z AUTO 31006KT 10SM SCT013 OVC030 M01/M02 A2991 RMK AO2 T10061017
KLUM 250515Z AUTO 32008KT 10SM BKN030 OVC050 M01/M02 A2991 RMK AO2 T10071017
KLUM 250455Z AUTO 33008KT 10SM BKN013 BKN030 OVC050 M01/M02 A2991 RMK AO2 T10071017
KLUM 250435Z AUTO 32006KT 10SM OVC013 M01/M01 A2991 RMK AO2 T10061015
KLUM 250415Z AUTO 32007KT 10SM OVC013 M01/M01 A2991 RMK AO2 T10061015
KLUM 250355Z AUTO 32008KT 10SM OVC013 M01/M01 A2991 RMK AO2 T10061014
KLUM 250335Z AUTO 32007KT 10SM OVC013 M01/M01 A2991 RMK AO2 T10071013
KLUM 250315Z AUTO 32006KT 10SM BKN013 OVC049 M01/M01 A2991 RMK AO2 T10061012
KLUM 250255Z AUTO 32007KT 10SM -SN SCT013 BKN049 OVC080 M01/M01 A2991 RMK AO2 T10071012
KLUM 250235Z AUTO 32007KT 10SM -SN SCT026 SCT049 OVC080 M01/M01 A2992 RMK AO2 T10061011
KLUM 250215Z AUTO 32008KT 10SM -SN SCT016 BKN024 OVC080 M01/M01 A2992 RMK AO2 T10061011
KLUM 250155Z AUTO 33007KT 10SM BKN018 OVC024 M01/M01 A2992 RMK AO2 T10061010
KLUM 250135Z AUTO 34007KT 10SM OVC016 00/M01 A2993 RMK AO2 T10051010
KLUM 250115Z AUTO 32007KT 10SM OVC015 00/M01 A2993 RMK AO2 T10051010
KLUM 250055Z AUTO 33007KT 10SM OVC019 00/M01 A2993 RMK AO2 T10051010
KLUM 250035Z AUTO 33007KT 10SM OVC019 00/M01 A2993 RMK AO2 T10051010
KLUM 250015Z AUTO 33005KT 10SM SCT011 OVC019 00/M01 A2993 RMK AO2 T10051010
KLUM 242355Z AUTO 32006KT 10SM BKN011 OVC018 00/M01 A2993 RMK AO2 T10041009 11001 21008
KLUM 242335Z AUTO 32008KT 10SM BKN011 OVC018 00/M01 A2993 RMK AO2 T10051009
KLUM 242315Z AUTO 32005KT 10SM OVC012 00/M01 A2994 RMK AO2 T10051007
KLUM 242255Z AUTO 33004KT 10SM BKN012 OVC017 00/M01 A2994 RMK AO2 T10051007
KLUM 242235Z AUTO 34004KT 10SM OVC016 00/M01 A2993 RMK AO2 T10041007
KLUM 242215Z AUTO 35005KT 10SM -RA OVC014 00/M01 A2993 RMK AO2 T10031008
KLUM 242155Z AUTO 35006KT 10SM OVC016 00/M01 A2993 RMK AO2 T10021009
KLUM 242135Z AUTO 35005KT 10SM -DZ OVC013 00/M01 A2994 RMK AO2 T10011008
KLUM 242115Z AUTO 36004KT 7SM -RA OVC011 00/M01 A2993 RMK AO2 T10021007